sensor_id;sensor_type;location;lat;lon;timestamp;P1;durP1;ratioP1;P2;durP2;ratioP2
1467;SDS011;727;48.892;9.544;2022-12-18T00:00:39;52.70;;;29.98;;
1467;SDS011;727;48.892;9.544;2022-12-18T00:03:08;55.38;;;28.30;;
1467;SDS011;727;48.892;9.544;2022-12-18T00:05:34;44.88;;;26.38;;
1467;SDS011;727;48.892;9.544;2022-12-18T00:08:01;52.90;;;30.48;;
1467;SDS011;727;48.892;9.544;2022-12-18T00:10:28;55.25;;;26.27;;
1467;SDS011;727;48.892;9.544;2022-12-18T00:12:55;33.88;;;20.10;;
1467;SDS011;727;48.892;9.544;2022-12-18T00:15:22;32.03;;;20.95;;
1467;SDS011;727;48.892;9.544;2022-12-18T00:17:49;70.38;;;36.75;;
1467;SDS011;727;48.892;9.544;2022-12-18T00:20:17;53.95;;;32.15;;
1467;SDS011;727;48.892;9.544;2022-12-18T00:22:50;46.63;;;24.73;;
1467;SDS011;727;48.892;9.544;2022-12-18T00:25:17;48.83;;;28.25;;
1467;SDS011;727;48.892;9.544;2022-12-18T00:27:43;44.85;;;25.83;;
1467;SDS011;727;48.892;9.544;2022-12-18T00:30:10;46.95;;;29.13;;
1467;SDS011;727;48.892;9.544;2022-12-18T00:32:38;32.22;;;21.98;;
1467;SDS011;727;48.892;9.544;2022-12-18T00:35:04;42.88;;;25.92;;
1467;SDS011;727;48.892;9.544;2022-12-18T00:37:34;41.95;;;24.80;;
1467;SDS011;727;48.892;9.544;2022-12-18T00:40:01;37.70;;;24.75;;
1467;SDS011;727;48.892;9.544;2022-12-18T00:42:28;37.90;;;23.42;;
1467;SDS011;727;48.892;9.544;2022-12-18T00:45:12;31.73;;;19.88;;
1467;SDS011;727;48.892;9.544;2022-12-18T00:47:39;45.20;;;26.05;;
1467;SDS011;727;48.892;9.544;2022-12-18T00:50:06;45.13;;;26.27;;
1467;SDS011;727;48.892;9.544;2022-12-18T00:52:35;38.95;;;23.95;;
1467;SDS011;727;48.892;9.544;2022-12-18T00:55:02;44.17;;;25.77;;
1467;SDS011;727;48.892;9.544;2022-12-18T00:57:29;41.55;;;23.73;;
1467;SDS011;727;48.892;9.544;2022-12-18T00:59:56;43.28;;;24.42;;
1467;SDS011;727;48.892;9.544;2022-12-18T01:02:22;34.40;;;21.88;;
1467;SDS011;727;48.892;9.544;2022-12-18T01:04:49;34.58;;;21.88;;
1467;SDS011;727;48.892;9.544;2022-12-18T01:07:16;34.30;;;22.42;;
1467;SDS011;727;48.892;9.544;2022-12-18T01:09:44;39.88;;;21.52;;
1467;SDS011;727;48.892;9.544;2022-12-18T01:12:10;35.83;;;20.95;;
1467;SDS011;727;48.892;9.544;2022-12-18T01:14:37;38.80;;;23.08;;
1467;SDS011;727;48.892;9.544;2022-12-18T01:17:04;35.83;;;21.27;;
1467;SDS011;727;48.892;9.544;2022-12-18T01:19:31;30.83;;;18.63;;
1467;SDS011;727;48.892;9.544;2022-12-18T01:21:58;38.30;;;21.08;;
1467;SDS011;727;48.892;9.544;2022-12-18T01:24:25;23.67;;;15.60;;
1467;SDS011;727;48.892;9.544;2022-12-18T01:26:53;33.42;;;19.23;;
1467;SDS011;727;48.892;9.544;2022-12-18T01:29:19;33.13;;;17.17;;
1467;SDS011;727;48.892;9.544;2022-12-18T01:31:46;42.50;;;22.83;;
1467;SDS011;727;48.892;9.544;2022-12-18T01:34:13;30.55;;;19.27;;
1467;SDS011;727;48.892;9.544;2022-12-18T01:36:39;51.88;;;24.45;;
1467;SDS011;727;48.892;9.544;2022-12-18T01:39:08;47.47;;;22.77;;
1467;SDS011;727;48.892;9.544;2022-12-18T01:41:37;36.90;;;19.88;;
1467;SDS011;727;48.892;9.544;2022-12-18T01:47:30;28.45;;;19.35;;
1467;SDS011;727;48.892;9.544;2022-12-18T01:50:01;33.92;;;17.38;;
1467;SDS011;727;48.892;9.544;2022-12-18T01:52:32;24.65;;;16.20;;
1467;SDS011;727;48.892;9.544;2022-12-18T01:54:59;29.42;;;16.17;;
1467;SDS011;727;48.892;9.544;2022-12-18T01:57:28;26.17;;;15.40;;
1467;SDS011;727;48.892;9.544;2022-12-18T01:59:56;28.65;;;18.73;;
1467;SDS011;727;48.892;9.544;2022-12-18T02:02:26;29.30;;;16.23;;
1467;SDS011;727;48.892;9.544;2022-12-18T02:04:55;24.63;;;15.02;;
1467;SDS011;727;48.892;9.544;2022-12-18T02:07:25;31.27;;;20.00;;
1467;SDS011;727;48.892;9.544;2022-12-18T02:10:00;32.85;;;19.00;;
1467;SDS011;727;48.892;9.544;2022-12-18T02:12:31;31.42;;;20.92;;
1467;SDS011;727;48.892;9.544;2022-12-18T02:15:05;27.48;;;19.38;;
1467;SDS011;727;48.892;9.544;2022-12-18T02:17:36;40.35;;;19.95;;
1467;SDS011;727;48.892;9.544;2022-12-18T02:20:10;57.92;;;32.85;;
1467;SDS011;727;48.892;9.544;2022-12-18T02:22:44;46.90;;;28.10;;
1467;SDS011;727;48.892;9.544;2022-12-18T02:25:23;44.83;;;23.17;;
1467;SDS011;727;48.892;9.544;2022-12-18T02:28:00;40.88;;;22.15;;
1467;SDS011;727;48.892;9.544;2022-12-18T02:30:30;43.10;;;21.90;;
1467;SDS011;727;48.892;9.544;2022-12-18T02:33:00;33.75;;;19.80;;
1467;SDS011;727;48.892;9.544;2022-12-18T02:35:30;43.55;;;24.00;;
1467;SDS011;727;48.892;9.544;2022-12-18T02:37:58;34.72;;;19.08;;
1467;SDS011;727;48.892;9.544;2022-12-18T02:40:26;27.10;;;18.52;;
1467;SDS011;727;48.892;9.544;2022-12-18T02:42:54;33.95;;;18.42;;
1467;SDS011;727;48.892;9.544;2022-12-18T02:45:22;38.75;;;19.65;;
1467;SDS011;727;48.892;9.544;2022-12-18T02:47:49;30.95;;;19.45;;
1467;SDS011;727;48.892;9.544;2022-12-18T02:50:18;29.10;;;18.42;;
1467;SDS011;727;48.892;9.544;2022-12-18T02:52:50;30.85;;;18.48;;
1467;SDS011;727;48.892;9.544;2022-12-18T02:55:24;36.90;;;20.67;;
1467;SDS011;727;48.892;9.544;2022-12-18T02:58:02;34.75;;;19.08;;
1467;SDS011;727;48.892;9.544;2022-12-18T03:00:35;29.95;;;18.17;;
1467;SDS011;727;48.892;9.544;2022-12-18T03:03:09;39.83;;;20.15;;
1467;SDS011;727;48.892;9.544;2022-12-18T03:05:41;33.15;;;19.00;;
1467;SDS011;727;48.892;9.544;2022-12-18T03:08:12;29.67;;;16.45;;
1467;SDS011;727;48.892;9.544;2022-12-18T03:10:45;24.50;;;16.73;;
1467;SDS011;727;48.892;9.544;2022-12-18T03:13:20;34.55;;;18.90;;
1467;SDS011;727;48.892;9.544;2022-12-18T03:15:53;32.33;;;17.55;;
1467;SDS011;727;48.892;9.544;2022-12-18T03:18:23;27.55;;;16.95;;
1467;SDS011;727;48.892;9.544;2022-12-18T03:20:53;26.33;;;16.98;;
1467;SDS011;727;48.892;9.544;2022-12-18T03:23:24;31.52;;;15.50;;
1467;SDS011;727;48.892;9.544;2022-12-18T03:25:56;28.40;;;15.32;;
1467;SDS011;727;48.892;9.544;2022-12-18T03:28:27;31.65;;;18.27;;
1467;SDS011;727;48.892;9.544;2022-12-18T03:30:58;39.05;;;18.40;;
1467;SDS011;727;48.892;9.544;2022-12-18T03:33:27;35.88;;;19.17;;
1467;SDS011;727;48.892;9.544;2022-12-18T03:35:57;31.90;;;17.13;;
1467;SDS011;727;48.892;9.544;2022-12-18T03:38:24;27.38;;;14.60;;
1467;SDS011;727;48.892;9.544;2022-12-18T03:40:53;31.48;;;17.90;;
1467;SDS011;727;48.892;9.544;2022-12-18T03:43:29;29.73;;;16.83;;
1467;SDS011;727;48.892;9.544;2022-12-18T03:46:04;27.13;;;17.35;;
1467;SDS011;727;48.892;9.544;2022-12-18T03:48:37;28.77;;;18.52;;
1467;SDS011;727;48.892;9.544;2022-12-18T03:51:08;38.75;;;18.15;;
1467;SDS011;727;48.892;9.544;2022-12-18T03:53:40;33.03;;;18.13;;
1467;SDS011;727;48.892;9.544;2022-12-18T03:56:12;30.20;;;17.00;;
1467;SDS011;727;48.892;9.544;2022-12-18T03:58:42;29.30;;;15.90;;
1467;SDS011;727;48.892;9.544;2022-12-18T04:01:13;29.35;;;16.08;;
1467;SDS011;727;48.892;9.544;2022-12-18T04:03:42;39.03;;;21.88;;
1467;SDS011;727;48.892;9.544;2022-12-18T04:06:12;30.52;;;20.13;;
1467;SDS011;727;48.892;9.544;2022-12-18T04:08:40;35.35;;;18.20;;
1467;SDS011;727;48.892;9.544;2022-12-18T04:11:08;40.40;;;20.15;;
1467;SDS011;727;48.892;9.544;2022-12-18T04:13:36;29.98;;;18.13;;
1467;SDS011;727;48.892;9.544;2022-12-18T04:16:04;25.33;;;16.17;;
1467;SDS011;727;48.892;9.544;2022-12-18T04:18:32;28.15;;;16.25;;
1467;SDS011;727;48.892;9.544;2022-12-18T04:20:59;27.55;;;17.02;;
1467;SDS011;727;48.892;9.544;2022-12-18T04:23:26;24.90;;;15.68;;
1467;SDS011;727;48.892;9.544;2022-12-18T04:25:53;26.73;;;15.90;;
1467;SDS011;727;48.892;9.544;2022-12-18T04:28:20;29.58;;;17.23;;
1467;SDS011;727;48.892;9.544;2022-12-18T04:30:47;34.25;;;18.90;;
1467;SDS011;727;48.892;9.544;2022-12-18T04:33:14;29.52;;;15.50;;
1467;SDS011;727;48.892;9.544;2022-12-18T04:35:45;31.02;;;17.55;;
1467;SDS011;727;48.892;9.544;2022-12-18T04:38:11;23.55;;;15.93;;
1467;SDS011;727;48.892;9.544;2022-12-18T04:40:38;28.10;;;16.05;;
1467;SDS011;727;48.892;9.544;2022-12-18T04:43:05;20.67;;;14.25;;
1467;SDS011;727;48.892;9.544;2022-12-18T04:45:32;24.70;;;13.05;;
1467;SDS011;727;48.892;9.544;2022-12-18T04:47:59;21.95;;;13.25;;
1467;SDS011;727;48.892;9.544;2022-12-18T04:50:26;24.05;;;14.88;;
1467;SDS011;727;48.892;9.544;2022-12-18T04:52:55;22.20;;;14.70;;
1467;SDS011;727;48.892;9.544;2022-12-18T04:55:22;27.60;;;17.38;;
1467;SDS011;727;48.892;9.544;2022-12-18T04:57:48;26.15;;;15.65;;
1467;SDS011;727;48.892;9.544;2022-12-18T05:00:15;29.45;;;16.13;;
1467;SDS011;727;48.892;9.544;2022-12-18T05:02:42;32.13;;;17.35;;
1467;SDS011;727;48.892;9.544;2022-12-18T05:05:09;27.08;;;17.33;;
1467;SDS011;727;48.892;9.544;2022-12-18T05:07:36;27.00;;;16.77;;
1467;SDS011;727;48.892;9.544;2022-12-18T05:10:05;23.02;;;15.68;;
1467;SDS011;727;48.892;9.544;2022-12-18T05:12:33;28.63;;;16.98;;
1467;SDS011;727;48.892;9.544;2022-12-18T05:15:20;37.55;;;18.70;;
1467;SDS011;727;48.892;9.544;2022-12-18T05:17:46;32.17;;;19.08;;
1467;SDS011;727;48.892;9.544;2022-12-18T05:20:13;40.75;;;21.23;;
1467;SDS011;727;48.892;9.544;2022-12-18T05:22:40;38.70;;;22.77;;
1467;SDS011;727;48.892;9.544;2022-12-18T05:25:08;38.53;;;18.73;;
1467;SDS011;727;48.892;9.544;2022-12-18T05:27:35;36.40;;;21.88;;
1467;SDS011;727;48.892;9.544;2022-12-18T05:30:02;36.20;;;21.10;;
1467;SDS011;727;48.892;9.544;2022-12-18T05:32:29;38.10;;;19.92;;
1467;SDS011;727;48.892;9.544;2022-12-18T05:34:56;33.10;;;21.02;;
1467;SDS011;727;48.892;9.544;2022-12-18T05:37:23;40.60;;;23.40;;
1467;SDS011;727;48.892;9.544;2022-12-18T05:39:49;38.45;;;21.98;;
1467;SDS011;727;48.892;9.544;2022-12-18T05:42:17;33.00;;;19.35;;
1467;SDS011;727;48.892;9.544;2022-12-18T05:44:44;28.33;;;17.55;;
1467;SDS011;727;48.892;9.544;2022-12-18T05:47:11;32.38;;;20.33;;
1467;SDS011;727;48.892;9.544;2022-12-18T05:49:38;39.72;;;22.63;;
1467;SDS011;727;48.892;9.544;2022-12-18T05:52:04;38.90;;;22.42;;
1467;SDS011;727;48.892;9.544;2022-12-18T05:54:31;31.77;;;19.20;;
1467;SDS011;727;48.892;9.544;2022-12-18T05:56:58;41.55;;;21.88;;
1467;SDS011;727;48.892;9.544;2022-12-18T05:59:26;48.80;;;20.45;;
1467;SDS011;727;48.892;9.544;2022-12-18T06:01:53;31.27;;;19.00;;
1467;SDS011;727;48.892;9.544;2022-12-18T06:04:19;45.30;;;22.27;;
1467;SDS011;727;48.892;9.544;2022-12-18T06:06:46;39.78;;;20.27;;
1467;SDS011;727;48.892;9.544;2022-12-18T06:09:13;33.50;;;19.27;;
1467;SDS011;727;48.892;9.544;2022-12-18T06:11:39;40.50;;;20.40;;
1467;SDS011;727;48.892;9.544;2022-12-18T06:14:06;38.35;;;19.50;;
1467;SDS011;727;48.892;9.544;2022-12-18T06:16:34;33.45;;;19.85;;
1467;SDS011;727;48.892;9.544;2022-12-18T06:19:02;43.20;;;21.48;;
1467;SDS011;727;48.892;9.544;2022-12-18T06:21:29;41.05;;;20.23;;
1467;SDS011;727;48.892;9.544;2022-12-18T06:23:57;43.13;;;20.90;;
1467;SDS011;727;48.892;9.544;2022-12-18T06:26:24;35.80;;;20.10;;
1467;SDS011;727;48.892;9.544;2022-12-18T06:28:50;41.88;;;22.35;;
1467;SDS011;727;48.892;9.544;2022-12-18T06:31:17;30.95;;;18.50;;
1467;SDS011;727;48.892;9.544;2022-12-18T06:33:45;39.78;;;21.17;;
1467;SDS011;727;48.892;9.544;2022-12-18T06:36:12;39.05;;;19.52;;
1467;SDS011;727;48.892;9.544;2022-12-18T06:38:40;40.28;;;20.63;;
1467;SDS011;727;48.892;9.544;2022-12-18T06:41:08;37.60;;;20.35;;
1467;SDS011;727;48.892;9.544;2022-12-18T06:43:35;42.20;;;20.95;;
1467;SDS011;727;48.892;9.544;2022-12-18T06:46:02;36.00;;;19.95;;
1467;SDS011;727;48.892;9.544;2022-12-18T06:48:30;56.58;;;29.65;;
1467;SDS011;727;48.892;9.544;2022-12-18T06:50:58;35.70;;;23.33;;
1467;SDS011;727;48.892;9.544;2022-12-18T06:53:25;64.80;;;36.80;;
1467;SDS011;727;48.892;9.544;2022-12-18T06:55:52;80.80;;;50.20;;
1467;SDS011;727;48.892;9.544;2022-12-18T06:58:25;107.15;;;71.32;;
1467;SDS011;727;48.892;9.544;2022-12-18T07:00:51;42.65;;;32.75;;
1467;SDS011;727;48.892;9.544;2022-12-18T07:03:18;41.55;;;28.33;;
1467;SDS011;727;48.892;9.544;2022-12-18T07:05:45;42.97;;;24.48;;
1467;SDS011;727;48.892;9.544;2022-12-18T07:08:13;41.20;;;22.50;;
1467;SDS011;727;48.892;9.544;2022-12-18T07:10:40;44.53;;;22.98;;
1467;SDS011;727;48.892;9.544;2022-12-18T07:13:08;47.50;;;27.13;;
1467;SDS011;727;48.892;9.544;2022-12-18T07:15:35;38.20;;;20.48;;
1467;SDS011;727;48.892;9.544;2022-12-18T07:18:01;36.67;;;23.65;;
1467;SDS011;727;48.892;9.544;2022-12-18T07:20:28;45.17;;;26.17;;
1467;SDS011;727;48.892;9.544;2022-12-18T07:22:55;61.22;;;37.03;;
1467;SDS011;727;48.892;9.544;2022-12-18T07:25:24;62.72;;;34.97;;
1467;SDS011;727;48.892;9.544;2022-12-18T07:27:50;42.05;;;25.45;;
1467;SDS011;727;48.892;9.544;2022-12-18T07:30:17;39.72;;;20.90;;
1467;SDS011;727;48.892;9.544;2022-12-18T07:32:44;37.60;;;19.23;;
1467;SDS011;727;48.892;9.544;2022-12-18T07:35:10;35.90;;;20.50;;
1467;SDS011;727;48.892;9.544;2022-12-18T07:37:37;34.78;;;19.92;;
1467;SDS011;727;48.892;9.544;2022-12-18T07:40:04;45.58;;;22.42;;
1467;SDS011;727;48.892;9.544;2022-12-18T07:42:33;42.78;;;22.15;;
1467;SDS011;727;48.892;9.544;2022-12-18T07:45:01;51.60;;;26.33;;
1467;SDS011;727;48.892;9.544;2022-12-18T07:47:28;48.92;;;25.95;;
1467;SDS011;727;48.892;9.544;2022-12-18T07:49:55;50.30;;;26.73;;
1467;SDS011;727;48.892;9.544;2022-12-18T07:52:22;60.42;;;30.92;;
1467;SDS011;727;48.892;9.544;2022-12-18T07:54:48;48.72;;;28.67;;
1467;SDS011;727;48.892;9.544;2022-12-18T07:57:15;52.40;;;28.35;;
1467;SDS011;727;48.892;9.544;2022-12-18T07:59:43;44.22;;;25.40;;
1467;SDS011;727;48.892;9.544;2022-12-18T08:02:10;44.28;;;27.58;;
1467;SDS011;727;48.892;9.544;2022-12-18T08:04:36;42.30;;;23.70;;
1467;SDS011;727;48.892;9.544;2022-12-18T08:07:03;50.30;;;27.05;;
1467;SDS011;727;48.892;9.544;2022-12-18T08:09:30;47.40;;;25.33;;
1467;SDS011;727;48.892;9.544;2022-12-18T08:11:57;41.60;;;22.52;;
1467;SDS011;727;48.892;9.544;2022-12-18T08:14:23;49.38;;;23.70;;
1467;SDS011;727;48.892;9.544;2022-12-18T08:16:52;44.15;;;23.15;;
1467;SDS011;727;48.892;9.544;2022-12-18T08:19:19;50.05;;;26.17;;
1467;SDS011;727;48.892;9.544;2022-12-18T08:21:45;60.90;;;34.15;;
1467;SDS011;727;48.892;9.544;2022-12-18T08:24:12;38.25;;;21.17;;
1467;SDS011;727;48.892;9.544;2022-12-18T08:26:39;33.80;;;22.08;;
1467;SDS011;727;48.892;9.544;2022-12-18T08:29:05;44.03;;;24.48;;
1467;SDS011;727;48.892;9.544;2022-12-18T08:31:32;41.55;;;22.88;;
1467;SDS011;727;48.892;9.544;2022-12-18T08:34:00;40.00;;;22.08;;
1467;SDS011;727;48.892;9.544;2022-12-18T08:36:27;37.17;;;21.60;;
1467;SDS011;727;48.892;9.544;2022-12-18T08:38:54;44.33;;;21.45;;
1467;SDS011;727;48.892;9.544;2022-12-18T08:41:20;32.50;;;19.23;;
1467;SDS011;727;48.892;9.544;2022-12-18T08:43:47;33.35;;;24.58;;
1467;SDS011;727;48.892;9.544;2022-12-18T08:46:32;36.20;;;21.15;;
1467;SDS011;727;48.892;9.544;2022-12-18T08:49:03;29.73;;;20.77;;
1467;SDS011;727;48.892;9.544;2022-12-18T08:51:29;37.70;;;21.60;;
1467;SDS011;727;48.892;9.544;2022-12-18T08:53:56;34.25;;;20.33;;
1467;SDS011;727;48.892;9.544;2022-12-18T08:56:23;37.95;;;19.88;;
1467;SDS011;727;48.892;9.544;2022-12-18T08:58:51;33.60;;;21.52;;
1467;SDS011;727;48.892;9.544;2022-12-18T09:01:18;38.42;;;25.30;;
1467;SDS011;727;48.892;9.544;2022-12-18T09:03:45;36.75;;;22.80;;
1467;SDS011;727;48.892;9.544;2022-12-18T09:06:14;33.20;;;20.38;;
1467;SDS011;727;48.892;9.544;2022-12-18T09:08:42;33.42;;;19.83;;
1467;SDS011;727;48.892;9.544;2022-12-18T09:11:11;33.80;;;19.05;;
1467;SDS011;727;48.892;9.544;2022-12-18T09:13:40;37.65;;;22.42;;
1467;SDS011;727;48.892;9.544;2022-12-18T09:16:07;38.53;;;24.33;;
1467;SDS011;727;48.892;9.544;2022-12-18T09:18:34;35.80;;;24.83;;
1467;SDS011;727;48.892;9.544;2022-12-18T09:21:06;39.17;;;27.77;;
1467;SDS011;727;48.892;9.544;2022-12-18T09:23:36;38.28;;;25.17;;
1467;SDS011;727;48.892;9.544;2022-12-18T09:26:03;38.38;;;25.95;;
1467;SDS011;727;48.892;9.544;2022-12-18T09:28:29;38.28;;;27.88;;
1467;SDS011;727;48.892;9.544;2022-12-18T09:30:56;34.70;;;23.55;;
1467;SDS011;727;48.892;9.544;2022-12-18T09:33:23;36.13;;;22.75;;
1467;SDS011;727;48.892;9.544;2022-12-18T09:35:50;35.55;;;22.52;;
1467;SDS011;727;48.892;9.544;2022-12-18T09:38:17;35.90;;;21.77;;
1467;SDS011;727;48.892;9.544;2022-12-18T09:40:47;36.60;;;24.02;;
1467;SDS011;727;48.892;9.544;2022-12-18T09:43:17;40.35;;;24.00;;
1467;SDS011;727;48.892;9.544;2022-12-18T09:45:46;33.70;;;20.52;;
1467;SDS011;727;48.892;9.544;2022-12-18T09:48:18;38.58;;;23.67;;
1467;SDS011;727;48.892;9.544;2022-12-18T09:50:49;34.08;;;21.60;;
1467;SDS011;727;48.892;9.544;2022-12-18T09:53:19;30.70;;;19.70;;
1467;SDS011;727;48.892;9.544;2022-12-18T09:55:52;44.65;;;27.88;;
1467;SDS011;727;48.892;9.544;2022-12-18T09:58:22;31.60;;;21.83;;
1467;SDS011;727;48.892;9.544;2022-12-18T10:00:54;35.47;;;21.30;;
1467;SDS011;727;48.892;9.544;2022-12-18T10:03:21;32.25;;;21.40;;
1467;SDS011;727;48.892;9.544;2022-12-18T10:05:51;31.00;;;20.42;;
1467;SDS011;727;48.892;9.544;2022-12-18T10:08:29;29.77;;;18.35;;
1467;SDS011;727;48.892;9.544;2022-12-18T10:11:16;33.47;;;19.80;;
1467;SDS011;727;48.892;9.544;2022-12-18T10:13:55;31.63;;;18.90;;
1467;SDS011;727;48.892;9.544;2022-12-18T10:16:29;24.73;;;18.17;;
1467;SDS011;727;48.892;9.544;2022-12-18T10:19:16;25.90;;;17.30;;
1467;SDS011;727;48.892;9.544;2022-12-18T10:21:50;26.85;;;17.38;;
1467;SDS011;727;48.892;9.544;2022-12-18T10:24:28;27.17;;;18.42;;
1467;SDS011;727;48.892;9.544;2022-12-18T10:27:09;28.13;;;18.73;;
1467;SDS011;727;48.892;9.544;2022-12-18T10:29:39;26.02;;;17.60;;
1467;SDS011;727;48.892;9.544;2022-12-18T10:32:08;26.85;;;17.00;;
1467;SDS011;727;48.892;9.544;2022-12-18T10:34:41;27.33;;;16.83;;
1467;SDS011;727;48.892;9.544;2022-12-18T10:37:11;25.48;;;16.83;;
1467;SDS011;727;48.892;9.544;2022-12-18T10:39:42;29.88;;;18.85;;
1467;SDS011;727;48.892;9.544;2022-12-18T10:42:14;31.05;;;18.88;;
1467;SDS011;727;48.892;9.544;2022-12-18T10:44:43;25.02;;;16.20;;
1467;SDS011;727;48.892;9.544;2022-12-18T10:47:11;31.63;;;20.67;;
1467;SDS011;727;48.892;9.544;2022-12-18T10:49:42;26.90;;;17.65;;
1467;SDS011;727;48.892;9.544;2022-12-18T10:52:14;23.08;;;16.65;;
1467;SDS011;727;48.892;9.544;2022-12-18T10:54:46;28.13;;;18.85;;
1467;SDS011;727;48.892;9.544;2022-12-18T10:57:17;22.98;;;17.00;;
1467;SDS011;727;48.892;9.544;2022-12-18T10:59:56;28.65;;;18.50;;
1467;SDS011;727;48.892;9.544;2022-12-18T11:02:25;28.52;;;18.33;;
1467;SDS011;727;48.892;9.544;2022-12-18T11:04:54;22.53;;;16.53;;
1467;SDS011;727;48.892;9.544;2022-12-18T11:07:21;26.70;;;18.50;;
1467;SDS011;727;48.892;9.544;2022-12-18T11:09:59;26.83;;;17.77;;
1467;SDS011;727;48.892;9.544;2022-12-18T11:12:28;33.17;;;19.17;;
1467;SDS011;727;48.892;9.544;2022-12-18T11:14:55;30.35;;;18.85;;
1467;SDS011;727;48.892;9.544;2022-12-18T11:17:25;41.00;;;19.08;;
1467;SDS011;727;48.892;9.544;2022-12-18T11:19:56;24.15;;;16.30;;
1467;SDS011;727;48.892;9.544;2022-12-18T11:22:25;27.70;;;18.10;;
1467;SDS011;727;48.892;9.544;2022-12-18T11:24:54;30.40;;;18.67;;
1467;SDS011;727;48.892;9.544;2022-12-18T11:27:23;27.27;;;17.40;;
1467;SDS011;727;48.892;9.544;2022-12-18T11:29:52;28.88;;;16.90;;
1467;SDS011;727;48.892;9.544;2022-12-18T11:32:21;37.20;;;22.13;;
1467;SDS011;727;48.892;9.544;2022-12-18T11:34:55;27.30;;;18.02;;
1467;SDS011;727;48.892;9.544;2022-12-18T11:37:27;26.67;;;18.20;;
1467;SDS011;727;48.892;9.544;2022-12-18T11:39:55;30.88;;;18.80;;
1467;SDS011;727;48.892;9.544;2022-12-18T11:42:27;25.15;;;17.98;;
1467;SDS011;727;48.892;9.544;2022-12-18T11:45:02;24.85;;;16.52;;
1467;SDS011;727;48.892;9.544;2022-12-18T11:47:41;27.67;;;18.50;;
1467;SDS011;727;48.892;9.544;2022-12-18T11:50:12;29.75;;;18.38;;
1467;SDS011;727;48.892;9.544;2022-12-18T11:52:41;101.43;;;50.60;;
1467;SDS011;727;48.892;9.544;2022-12-18T11:55:10;26.20;;;18.23;;
1467;SDS011;727;48.892;9.544;2022-12-18T11:57:41;29.90;;;19.00;;
1467;SDS011;727;48.892;9.544;2022-12-18T12:00:18;25.95;;;18.48;;
1467;SDS011;727;48.892;9.544;2022-12-18T12:02:56;26.08;;;17.67;;
1467;SDS011;727;48.892;9.544;2022-12-18T12:05:40;28.73;;;18.30;;
1467;SDS011;727;48.892;9.544;2022-12-18T12:08:18;27.40;;;18.13;;
1467;SDS011;727;48.892;9.544;2022-12-18T12:10:57;23.38;;;15.75;;
1467;SDS011;727;48.892;9.544;2022-12-18T12:13:34;28.33;;;18.05;;
1467;SDS011;727;48.892;9.544;2022-12-18T12:16:12;32.63;;;19.70;;
1467;SDS011;727;48.892;9.544;2022-12-18T12:18:49;30.25;;;18.27;;
1467;SDS011;727;48.892;9.544;2022-12-18T12:21:28;26.63;;;17.95;;
1467;SDS011;727;48.892;9.544;2022-12-18T12:24:02;28.48;;;18.77;;
1467;SDS011;727;48.892;9.544;2022-12-18T12:26:45;28.48;;;17.27;;
1467;SDS011;727;48.892;9.544;2022-12-18T12:29:22;33.70;;;20.25;;
1467;SDS011;727;48.892;9.544;2022-12-18T12:32:04;28.13;;;16.70;;
1467;SDS011;727;48.892;9.544;2022-12-18T12:34:40;25.00;;;16.00;;
1467;SDS011;727;48.892;9.544;2022-12-18T12:37:23;26.02;;;17.80;;
1467;SDS011;727;48.892;9.544;2022-12-18T12:39:58;29.92;;;18.77;;
1467;SDS011;727;48.892;9.544;2022-12-18T12:42:29;36.38;;;21.40;;
1467;SDS011;727;48.892;9.544;2022-12-18T12:45:20;35.13;;;22.58;;
1467;SDS011;727;48.892;9.544;2022-12-18T12:47:51;55.97;;;28.85;;
1467;SDS011;727;48.892;9.544;2022-12-18T12:50:19;51.58;;;27.80;;
1467;SDS011;727;48.892;9.544;2022-12-18T12:52:49;32.63;;;23.05;;
1467;SDS011;727;48.892;9.544;2022-12-18T12:55:19;49.00;;;30.08;;
1467;SDS011;727;48.892;9.544;2022-12-18T12:57:48;31.50;;;20.50;;
1467;SDS011;727;48.892;9.544;2022-12-18T13:00:22;39.17;;;23.90;;
1467;SDS011;727;48.892;9.544;2022-12-18T13:02:52;31.27;;;21.80;;
1467;SDS011;727;48.892;9.544;2022-12-18T13:05:27;28.33;;;20.58;;
1467;SDS011;727;48.892;9.544;2022-12-18T13:07:59;31.45;;;21.75;;
1467;SDS011;727;48.892;9.544;2022-12-18T13:10:32;28.25;;;18.80;;
1467;SDS011;727;48.892;9.544;2022-12-18T13:13:02;27.45;;;17.55;;
1467;SDS011;727;48.892;9.544;2022-12-18T13:15:33;30.33;;;20.67;;
1467;SDS011;727;48.892;9.544;2022-12-18T13:18:09;29.35;;;19.58;;
1467;SDS011;727;48.892;9.544;2022-12-18T13:20:41;29.98;;;20.20;;
1467;SDS011;727;48.892;9.544;2022-12-18T13:23:19;35.25;;;22.63;;
1467;SDS011;727;48.892;9.544;2022-12-18T13:25:58;33.33;;;21.13;;
1467;SDS011;727;48.892;9.544;2022-12-18T13:34:29;46.40;;;27.00;;
1467;SDS011;727;48.892;9.544;2022-12-18T13:36:56;37.95;;;22.92;;
1467;SDS011;727;48.892;9.544;2022-12-18T13:39:54;43.00;;;25.77;;
1467;SDS011;727;48.892;9.544;2022-12-18T13:42:39;32.72;;;21.35;;
1467;SDS011;727;48.892;9.544;2022-12-18T13:45:43;25.67;;;17.83;;
1467;SDS011;727;48.892;9.544;2022-12-18T13:48:19;26.38;;;16.52;;
1467;SDS011;727;48.892;9.544;2022-12-18T13:50:50;34.60;;;19.77;;
1467;SDS011;727;48.892;9.544;2022-12-18T13:53:21;30.63;;;18.00;;
1467;SDS011;727;48.892;9.544;2022-12-18T13:55:50;33.00;;;20.38;;
1467;SDS011;727;48.892;9.544;2022-12-18T13:58:17;31.23;;;20.20;;
1467;SDS011;727;48.892;9.544;2022-12-18T14:00:44;30.25;;;18.95;;
1467;SDS011;727;48.892;9.544;2022-12-18T14:03:16;26.33;;;17.45;;
1467;SDS011;727;48.892;9.544;2022-12-18T14:05:45;35.53;;;20.05;;
1467;SDS011;727;48.892;9.544;2022-12-18T14:08:19;30.02;;;19.63;;
1467;SDS011;727;48.892;9.544;2022-12-18T14:10:47;31.75;;;19.65;;
1467;SDS011;727;48.892;9.544;2022-12-18T14:13:17;34.80;;;20.88;;
1467;SDS011;727;48.892;9.544;2022-12-18T14:15:49;26.50;;;17.90;;
1467;SDS011;727;48.892;9.544;2022-12-18T14:18:19;29.25;;;19.25;;
1467;SDS011;727;48.892;9.544;2022-12-18T14:20:49;30.08;;;18.30;;
1467;SDS011;727;48.892;9.544;2022-12-18T14:23:28;26.38;;;16.55;;
1467;SDS011;727;48.892;9.544;2022-12-18T14:25:56;31.42;;;19.05;;
1467;SDS011;727;48.892;9.544;2022-12-18T14:28:23;32.45;;;19.00;;
1467;SDS011;727;48.892;9.544;2022-12-18T14:30:51;31.25;;;17.80;;
1467;SDS011;727;48.892;9.544;2022-12-18T14:33:20;29.88;;;20.20;;
1467;SDS011;727;48.892;9.544;2022-12-18T14:35:55;30.13;;;17.80;;
1467;SDS011;727;48.892;9.544;2022-12-18T14:38:24;63.83;;;32.28;;
1467;SDS011;727;48.892;9.544;2022-12-18T14:40:55;26.85;;;17.90;;
1467;SDS011;727;48.892;9.544;2022-12-18T14:43:26;36.83;;;21.60;;
1467;SDS011;727;48.892;9.544;2022-12-18T14:45:54;32.80;;;20.15;;
1467;SDS011;727;48.892;9.544;2022-12-18T14:48:24;30.08;;;17.60;;
1467;SDS011;727;48.892;9.544;2022-12-18T14:51:00;31.35;;;17.23;;
1467;SDS011;727;48.892;9.544;2022-12-18T14:53:34;32.75;;;18.08;;
1467;SDS011;727;48.892;9.544;2022-12-18T14:56:03;28.55;;;18.63;;
1467;SDS011;727;48.892;9.544;2022-12-18T14:58:43;30.30;;;18.52;;
1467;SDS011;727;48.892;9.544;2022-12-18T15:01:18;29.42;;;18.20;;
1467;SDS011;727;48.892;9.544;2022-12-18T15:03:46;33.08;;;20.05;;
1467;SDS011;727;48.892;9.544;2022-12-18T15:06:18;28.20;;;17.13;;
1467;SDS011;727;48.892;9.544;2022-12-18T15:08:56;32.80;;;17.60;;
1467;SDS011;727;48.892;9.544;2022-12-18T15:11:28;29.45;;;16.83;;
1467;SDS011;727;48.892;9.544;2022-12-18T15:13:59;27.55;;;16.52;;
1467;SDS011;727;48.892;9.544;2022-12-18T15:16:49;26.35;;;14.43;;
1467;SDS011;727;48.892;9.544;2022-12-18T15:19:17;33.05;;;18.73;;
1467;SDS011;727;48.892;9.544;2022-12-18T15:21:45;28.38;;;17.30;;
1467;SDS011;727;48.892;9.544;2022-12-18T15:24:17;28.95;;;17.42;;
1467;SDS011;727;48.892;9.544;2022-12-18T15:26:48;29.95;;;18.40;;